createdAt,value
2023-01-05T00:01:05.643Z,101006.50
2023-01-05T00:03:32.163Z,101018.50
2023-01-05T00:06:00.657Z,101015.97
2023-01-05T00:08:32.959Z,101015.47
2023-01-05T00:11:26.003Z,101026.16
2023-01-05T00:14:11.178Z,101013.00
2023-01-05T00:16:56.097Z,101025.00
2023-01-05T00:19:41.571Z,101039.66
2023-01-05T00:22:31.679Z,101027.59
2023-01-05T00:25:17.270Z,101033.38
2023-01-05T00:27:45.778Z,101034.69
2023-01-05T00:30:14.805Z,101027.44
2023-01-05T00:32:42.518Z,101048.50
2023-01-05T00:35:10.588Z,101037.66
2023-01-05T00:37:40.867Z,101037.91
2023-01-05T00:40:12.838Z,101031.16
2023-01-05T00:42:39.408Z,101039.66
2023-01-05T00:45:11.720Z,101047.09
2023-01-05T00:47:38.422Z,101053.97
2023-01-05T00:50:06.649Z,101050.59
2023-01-05T00:52:33.091Z,101045.53
2023-01-05T00:54:59.596Z,101065.94
2023-01-05T00:57:26.149Z,101071.09
2023-01-05T00:59:52.554Z,101066.03
2023-01-05T01:02:19.204Z,101075.78
2023-01-05T01:04:45.627Z,101054.56
2023-01-05T01:07:12.062Z,101066.44
2023-01-05T01:09:39.126Z,101056.69
2023-01-05T01:12:05.557Z,101083.97
2023-01-05T01:14:31.969Z,101064.59
2023-01-05T01:16:58.473Z,101065.22
2023-01-05T01:19:26.117Z,101066.91
2023-01-05T01:21:53.980Z,101055.84
2023-01-05T01:24:23.033Z,101069.69
2023-01-05T01:26:49.814Z,101068.63
2023-01-05T01:29:17.433Z,101063.94
2023-01-05T01:31:45.316Z,101079.69
2023-01-05T01:34:11.744Z,101060.09
2023-01-05T01:36:38.324Z,101063.09
2023-01-05T01:39:04.790Z,101067.75
2023-01-05T01:41:31.253Z,101065.84
2023-01-05T01:43:57.967Z,101066.91
2023-01-05T01:46:25.960Z,101064.78
2023-01-05T01:48:56.603Z,101062.03
2023-01-05T01:51:28.063Z,101073.69
2023-01-05T01:53:59.141Z,101071.97
2023-01-05T01:56:36.484Z,101072.84
2023-01-05T01:59:02.996Z,101075.38
2023-01-05T02:01:29.973Z,101076.84
2023-01-05T02:03:56.687Z,101083.44
2023-01-05T02:06:23.682Z,101083.00
2023-01-05T02:08:50.350Z,101067.56
2023-01-05T02:11:40.977Z,101064.94
2023-01-05T02:14:37.955Z,101066.84
2023-01-05T02:17:14.991Z,101062.16
2023-01-05T02:20:13.728Z,101074.31
2023-01-05T02:23:17.365Z,101066.03
2023-01-05T02:26:10.045Z,101064.94
2023-01-05T02:31:53.651Z,101066.84
2023-01-05T02:34:26.514Z,101069.59
2023-01-05T02:36:56.204Z,101073.69
2023-01-05T02:39:46.433Z,101077.09
2023-01-05T02:42:18.176Z,101068.16
2023-01-05T02:44:45.027Z,101069.47
2023-01-05T02:47:30.029Z,101061.84
2023-01-05T02:50:03.323Z,101071.38
2023-01-05T02:52:39.825Z,101077.50
2023-01-05T02:55:10.570Z,101071.97
2023-01-05T02:57:47.367Z,101090.53
2023-01-05T03:00:21.733Z,101081.38
2023-01-05T03:02:51.580Z,101087.66
2023-01-05T03:05:32.314Z,101082.50
2023-01-05T03:08:11.068Z,101092.09
2023-01-05T03:11:15.411Z,101091.25
2023-01-05T03:13:45.147Z,101090.41
2023-01-05T03:16:18.290Z,101092.94
2023-01-05T03:19:04.752Z,101097.63
2023-01-05T03:21:50.108Z,101103.59
2023-01-05T03:24:35.424Z,101103.59
2023-01-05T03:27:21.175Z,101116.56
2023-01-05T03:30:06.039Z,101109.13
2023-01-05T03:32:57.368Z,101122.34
2023-01-05T03:35:34.313Z,101119.59
2023-01-05T03:38:07.793Z,101121.09
2023-01-05T03:40:37.206Z,101119.66
2023-01-05T03:43:05.029Z,101120.91
2023-01-05T03:45:41.992Z,101109.25
2023-01-05T03:48:08.413Z,101108.63
2023-01-05T03:50:36.138Z,101112.03
2023-01-05T03:53:02.736Z,101118.59
2023-01-05T03:55:29.242Z,101115.25
2023-01-05T03:57:55.800Z,101121.97
2023-01-05T04:00:22.232Z,101118.59
2023-01-05T04:02:48.777Z,101123.06
2023-01-05T04:05:15.402Z,101123.06
2023-01-05T04:07:41.789Z,101124.13
2023-01-05T04:10:08.671Z,101114.16
2023-01-05T04:12:36.508Z,101119.84
2023-01-05T04:15:04.659Z,101120.06
2023-01-05T04:17:31.342Z,101120.72
2023-01-05T04:19:57.911Z,101119.22
2023-01-05T04:22:27.402Z,101119.84
2023-01-05T04:24:54.162Z,101130.91
2023-01-05T04:27:20.587Z,101131.97
2023-01-05T04:29:47.116Z,101127.50
2023-01-05T04:32:13.494Z,101136.91
2023-01-05T04:34:39.875Z,101123.28
2023-01-05T04:37:06.294Z,101125.00
2023-01-05T04:39:32.778Z,101125.84
2023-01-05T04:41:59.365Z,101128.81
2023-01-05T04:44:25.778Z,101128.22
2023-01-05T04:46:52.330Z,101124.59
2023-01-05T04:49:18.789Z,101128.41
2023-01-05T04:51:45.157Z,101125.44
2023-01-05T04:54:11.553Z,101128.44
2023-01-05T04:56:37.957Z,101126.94
2023-01-05T04:59:04.618Z,101121.63
2023-01-05T05:01:31.194Z,101128.00
2023-01-05T05:03:57.841Z,101129.28
2023-01-05T05:06:24.402Z,101141.19
2023-01-05T05:08:50.871Z,101133.13
2023-01-05T05:11:17.313Z,101133.97
2023-01-05T05:13:43.756Z,101128.19
2023-01-05T05:16:10.268Z,101127.38
2023-01-05T05:18:36.774Z,101121.22
2023-01-05T05:21:03.347Z,101126.53
2023-01-05T05:23:29.892Z,101129.28
2023-01-05T05:25:56.329Z,101129.28
2023-01-05T05:28:27.956Z,101126.75
2023-01-05T05:30:56.223Z,101134.81
2023-01-05T05:33:24.343Z,101126.75
2023-01-05T05:35:51.897Z,101136.94
2023-01-05T05:38:18.326Z,101139.31
2023-01-05T05:40:47.739Z,101138.03
2023-01-05T05:43:14.178Z,101146.94
2023-01-05T05:45:44.882Z,101135.88
2023-01-05T05:48:14.485Z,101144.63
2023-01-05T05:50:40.903Z,101148.84
2023-01-05T05:53:07.579Z,101166.28
2023-01-05T05:55:34.638Z,101156.13
2023-01-05T05:58:01.095Z,101160.56
2023-01-05T06:00:27.719Z,101164.63
2023-01-05T06:02:54.418Z,101159.50
2023-01-05T06:05:21.083Z,101168.25
2023-01-05T06:07:47.582Z,101168.03
2023-01-05T06:10:14.797Z,101177.81
2023-01-05T06:12:41.259Z,101167.59
2023-01-05T06:15:08.335Z,101177.81
2023-01-05T06:17:34.767Z,101176.94
2023-01-05T06:20:01.137Z,101176.72
2023-01-05T06:22:27.582Z,101182.69
2023-01-05T06:24:54.942Z,101190.56
2023-01-05T06:27:21.329Z,101197.59
2023-01-05T06:29:47.758Z,101198.66
2023-01-05T06:32:14.230Z,101208.00
2023-01-05T06:34:40.600Z,101206.34
2023-01-05T06:37:07.005Z,101200.38
2023-01-05T06:39:33.395Z,101211.88
2023-01-05T06:41:59.852Z,101211.88
2023-01-05T06:44:26.284Z,101214.88
2023-01-05T06:46:52.653Z,101218.91
2023-01-05T06:49:19.073Z,101212.56
2023-01-05T06:51:45.600Z,101216.13
2023-01-05T06:54:12.206Z,101219.13
2023-01-05T06:56:38.643Z,101218.91
2023-01-05T06:59:05.112Z,101218.91
2023-01-05T07:01:31.646Z,101215.94
2023-01-05T07:03:58.192Z,101220.84
2023-01-05T07:06:24.577Z,101220.41
2023-01-05T07:08:51.020Z,101223.59
2023-01-05T07:11:17.439Z,101224.66
2023-01-05T07:13:48.219Z,101227.19
2023-01-05T07:16:14.601Z,101223.81
2023-01-05T07:18:41.086Z,101235.06
2023-01-05T07:21:07.553Z,101235.72
2023-01-05T07:23:37.669Z,101237.44
2023-01-05T07:26:05.273Z,101243.56
2023-01-05T07:28:31.742Z,101247.63
2023-01-05T07:30:58.178Z,101250.16
2023-01-05T07:33:24.639Z,101249.94
2023-01-05T07:35:51.000Z,101248.03
2023-01-05T07:38:17.454Z,101263.34
2023-01-05T07:40:43.883Z,101257.59
2023-01-05T07:43:10.480Z,101259.53
2023-01-05T07:45:36.919Z,101272.25
2023-01-05T07:48:03.928Z,101275.88
2023-01-05T07:50:30.309Z,101279.50
2023-01-05T07:52:58.717Z,101276.72
2023-01-05T07:55:25.228Z,101287.56
2023-01-05T07:57:51.588Z,101286.94
2023-01-05T08:00:18.177Z,101296.06
2023-01-05T08:02:44.718Z,101302.44
2023-01-05T08:05:11.161Z,101296.06
2023-01-05T08:07:38.004Z,101293.94
2023-01-05T08:10:23.670Z,101302.88
2023-01-05T08:13:08.590Z,101306.69
2023-01-05T08:15:34.985Z,101303.06
2023-01-05T08:18:01.387Z,101304.38
2023-01-05T08:20:27.787Z,101316.88
2023-01-05T08:22:54.176Z,101317.28
2023-01-05T08:25:21.070Z,101321.75
2023-01-05T08:27:47.892Z,101315.38
2023-01-05T08:30:14.853Z,101317.28
2023-01-05T08:32:41.946Z,101320.06
2023-01-05T08:35:08.829Z,101333.03
2023-01-05T08:37:35.243Z,101334.53
2023-01-05T08:40:01.666Z,101321.56
2023-01-05T08:42:28.059Z,101323.69
2023-01-05T08:44:54.450Z,101324.09
2023-01-05T08:47:24.949Z,101335.13
2023-01-05T08:49:54.323Z,101331.31
2023-01-05T08:52:20.780Z,101337.25
2023-01-05T08:54:47.252Z,101336.19
2023-01-05T08:57:13.633Z,101340.44
2023-01-05T08:59:40.848Z,101338.28
2023-01-05T09:02:11.649Z,101346.81
2023-01-05T09:04:38.325Z,101352.34
2023-01-05T09:07:04.792Z,101347.47
2023-01-05T09:09:31.198Z,101354.66
2023-01-05T09:11:57.587Z,101350.84
2023-01-05T09:14:24.001Z,101355.94
2023-01-05T09:17:06.578Z,101351.91
2023-01-05T09:19:34.193Z,101357.84
2023-01-05T09:22:00.618Z,101358.47
2023-01-05T09:24:27.034Z,101360.16
2023-01-05T09:26:53.508Z,101361.84
2023-01-05T09:29:20.028Z,101354.38
2023-01-05T09:31:46.480Z,101353.75
2023-01-05T09:34:12.960Z,101356.91
2023-01-05T09:36:39.377Z,101353.69
2023-01-05T09:39:06.220Z,101356.88
2023-01-05T09:41:32.541Z,101357.50
2023-01-05T09:44:02.818Z,101363.44
2023-01-05T09:46:34.846Z,101370.44
2023-01-05T09:49:06.847Z,101375.53
2023-01-05T09:51:33.969Z,101378.31
2023-01-05T09:54:01.358Z,101375.34
2023-01-05T09:57:07.977Z,101381.28
2023-01-05T09:59:29.815Z,101389.78
2023-01-05T10:01:59.976Z,101386.44
2023-01-05T10:04:31.045Z,101404.28
2023-01-05T10:07:03.347Z,101401.09
2023-01-05T10:09:38.184Z,101400.88
2023-01-05T10:12:46.185Z,101399.63
2023-01-05T10:15:16.796Z,101409.00
2023-01-05T10:17:44.668Z,101406.91
2023-01-05T10:20:25.899Z,101407.56
2023-01-05T10:23:33.742Z,101419.66
2023-01-05T10:26:10.169Z,101417.97
2023-01-05T10:28:44.335Z,101416.06
2023-01-05T10:31:24.073Z,101405.59
2023-01-05T10:33:59.041Z,101413.47
2023-01-05T10:37:09.323Z,101414.97
2023-01-05T10:39:56.243Z,101413.25
2023-01-05T10:43:01.018Z,101412.75
2023-01-05T10:45:30.750Z,101412.97
2023-01-05T10:47:59.439Z,101415.28
2023-01-05T10:50:35.726Z,101411.22
2023-01-05T10:53:16.101Z,101408.44
2023-01-05T10:55:51.463Z,101407.53
2023-01-05T10:58:22.864Z,101414.34
2023-01-05T11:00:50.842Z,101422.19
2023-01-05T11:03:19.151Z,101425.16
2023-01-05T11:05:48.203Z,101414.69
2023-01-05T11:08:16.378Z,101420.22
2023-01-05T11:11:07.790Z,101427.91
2023-01-05T11:13:41.935Z,101417.91
2023-01-05T11:16:12.390Z,101421.56
2023-01-05T11:18:55.075Z,101412.19
2023-01-05T11:21:43.408Z,101411.78
2023-01-05T11:24:31.590Z,101414.38
2023-01-05T11:27:03.439Z,101420.31
2023-01-05T11:29:30.480Z,101422.28
2023-01-05T11:32:03.689Z,101423.78
2023-01-05T11:34:30.090Z,101428.47
2023-01-05T11:37:04.115Z,101425.47
2023-01-05T11:39:39.132Z,101432.25
2023-01-05T11:42:26.592Z,101436.94
2023-01-05T11:45:16.444Z,101433.09
2023-01-05T11:48:15.770Z,101423.78
2023-01-05T11:50:47.697Z,101429.69
2023-01-05T11:53:37.571Z,101427.53
2023-01-05T11:56:24.627Z,101443.31
2023-01-05T11:58:56.274Z,101433.31
2023-01-05T12:01:44.760Z,101434.16
2023-01-05T12:04:29.481Z,101445.63
2023-01-05T12:07:33.956Z,101434.41
2023-01-05T12:10:21.805Z,101426.72
2023-01-05T12:13:12.461Z,101435.72
2023-01-05T12:16:02.413Z,101435.47
2023-01-05T12:19:03.310Z,101428.44
2023-01-05T12:21:45.485Z,101425.22
2023-01-05T12:24:38.756Z,101434.78
2023-01-05T12:27:17.231Z,101430.09
2023-01-05T12:36:19.378Z,101428.28
2023-01-05T12:39:19.129Z,101433.56
2023-01-05T12:41:48.303Z,101429.59
2023-01-05T12:44:29.891Z,101429.38
2023-01-05T12:47:11.574Z,101436.81
2023-01-05T12:49:51.641Z,101418.63
2023-01-05T12:52:26.160Z,101422.47
2023-01-05T12:55:02.146Z,101429.53
2023-01-05T12:57:41.039Z,101423.66
2023-01-05T13:00:13.678Z,101418.00
2023-01-05T13:02:53.649Z,101416.91
2023-01-05T13:05:30.247Z,101424.84
2023-01-05T13:08:16.133Z,101426.94
2023-01-05T13:10:51.977Z,101428.00
2023-01-05T13:13:25.498Z,101433.66
2023-01-05T13:16:10.092Z,101429.69
2023-01-05T13:18:41.976Z,101432.63
2023-01-05T13:21:14.814Z,101432.53
2023-01-05T13:23:45.676Z,101428.47
2023-01-05T13:26:20.593Z,101435.56
2023-01-05T13:28:48.563Z,101424.16
2023-01-05T13:31:48.467Z,101424.59
2023-01-05T13:34:26.950Z,101424.19
2023-01-05T13:37:17.288Z,101424.66
2023-01-05T13:40:11.543Z,101426.56
2023-01-05T13:42:42.486Z,101424.72
2023-01-05T13:45:47.946Z,101429.88
2023-01-05T13:48:51.318Z,101426.06
2023-01-05T13:51:34.858Z,101433.19
2023-01-05T13:54:13.161Z,101434.47
2023-01-05T13:56:40.386Z,101437.69
2023-01-05T13:59:34.408Z,101438.16
2023-01-05T14:02:03.786Z,101436.91
2023-01-05T14:04:33.370Z,101435.88
2023-01-05T14:07:06.761Z,101433.41
2023-01-05T14:09:47.824Z,101436.81
2023-01-05T14:12:24.074Z,101441.31
2023-01-05T14:15:32.011Z,101440.50
2023-01-05T14:18:01.856Z,101441.41
2023-01-05T14:20:35.788Z,101449.31
2023-01-05T14:23:22.606Z,101446.59
2023-01-05T14:26:01.534Z,101452.97
2023-01-05T14:28:27.847Z,101448.25
2023-01-05T14:31:16.684Z,101449.13
2023-01-05T14:34:12.465Z,101448.09
2023-01-05T14:36:45.012Z,101441.06
2023-01-05T14:39:17.305Z,101449.16
2023-01-05T14:41:55.157Z,101447.47
2023-01-05T14:44:26.011Z,101446.88
2023-01-05T14:46:55.558Z,101453.91
2023-01-05T14:49:24.757Z,101457.41
2023-01-05T14:52:00.137Z,101459.16
2023-01-05T14:54:41.798Z,101462.97
2023-01-05T14:57:26.314Z,101470.19
2023-01-05T15:00:11.828Z,101474.03
2023-01-05T15:02:52.623Z,101477.44
2023-01-05T15:05:20.919Z,101471.03
2023-01-05T15:08:16.604Z,101479.34
2023-01-05T15:11:01.892Z,101474.22
2023-01-05T15:14:10.115Z,101467.63
2023-01-05T15:17:10.018Z,101479.75
2023-01-05T15:20:09.381Z,101479.97
2023-01-05T15:23:13.921Z,101480.41
2023-01-05T15:29:29.785Z,101488.28
2023-01-05T15:32:06.113Z,101482.16
2023-01-05T15:35:10.795Z,101488.31
2023-01-05T15:37:39.238Z,101479.59
2023-01-05T15:40:23.921Z,101485.59
2023-01-05T15:42:53.037Z,101469.63
2023-01-05T15:45:30.010Z,101469.44
2023-01-05T15:48:00.403Z,101468.34
2023-01-05T15:50:39.785Z,101474.97
2023-01-05T15:53:06.426Z,101474.09
2023-01-05T15:55:32.826Z,101478.78
2023-01-05T15:58:03.924Z,101470.50
2023-01-05T16:00:33.396Z,101469.44
2023-01-05T16:03:00.035Z,101470.50
2023-01-05T16:05:28.609Z,101469.88
2023-01-05T16:07:56.168Z,101488.63
2023-01-05T16:10:49.348Z,101479.09
2023-01-05T16:13:35.676Z,101482.50
2023-01-05T16:16:04.516Z,101488.84
2023-01-05T16:18:42.552Z,101482.03
2023-01-05T16:21:28.415Z,101487.16
2023-01-05T16:24:01.629Z,101481.19
2023-01-05T16:26:28.390Z,101488.44
2023-01-05T16:28:54.823Z,101484.63
2023-01-05T16:31:32.721Z,101480.56
2023-01-05T16:34:27.625Z,101490.13
2023-01-05T16:37:10.552Z,101481.00
2023-01-05T16:39:40.029Z,101481.84
2023-01-05T16:42:40.216Z,101471.22
2023-01-05T16:45:19.233Z,101475.91
2023-01-05T16:47:46.467Z,101477.19
2023-01-05T16:50:19.252Z,101475.47
2023-01-05T16:52:54.042Z,101483.13
2023-01-05T16:55:34.465Z,101475.91
2023-01-05T16:58:02.607Z,101477.16
2023-01-05T17:00:28.939Z,101469.97
2023-01-05T17:02:56.916Z,101471.03
2023-01-05T17:05:26.881Z,101471.22
2023-01-05T17:08:04.363Z,101479.94
2023-01-05T17:10:31.089Z,101482.28
2023-01-05T17:13:12.347Z,101474.19
2023-01-05T17:15:43.585Z,101480.38
2023-01-05T17:18:26.300Z,101486.53
2023-01-05T17:20:55.005Z,101477.19
2023-01-05T17:23:23.630Z,101485.03
2023-01-05T17:28:24.460Z,101472.50
2023-01-05T17:30:52.064Z,101464.84
2023-01-05T17:33:19.000Z,101471.66
2023-01-05T17:38:15.262Z,101466.97
2023-01-05T17:40:42.236Z,101461.88
2023-01-05T17:43:08.879Z,101452.97
2023-01-05T17:45:39.615Z,101457.63
2023-01-05T17:48:06.434Z,101456.34
2023-01-05T17:50:33.214Z,101449.34
2023-01-05T17:53:01.798Z,101452.09
2023-01-05T17:55:29.317Z,101446.59
2023-01-05T17:57:57.725Z,101452.31
2023-01-05T18:00:26.330Z,101450.41
2023-01-05T18:02:53.889Z,101444.88
2023-01-05T18:05:21.408Z,101445.72
2023-01-05T18:07:49.244Z,101439.34
2023-01-05T18:10:26.733Z,101437.66
2023-01-05T18:12:54.811Z,101442.53
2023-01-05T18:15:21.232Z,101444.03
2023-01-05T18:17:47.676Z,101441.88
2023-01-05T18:20:17.583Z,101444.44
2023-01-05T18:22:46.326Z,101435.13
2023-01-05T18:25:13.137Z,101441.47
2023-01-05T18:27:40.221Z,101439.34
2023-01-05T18:30:08.750Z,101448.25
2023-01-05T18:32:35.881Z,101439.78
2023-01-05T18:35:05.714Z,101436.81
2023-01-05T18:37:35.768Z,101443.81
2023-01-05T18:40:03.100Z,101439.16
2023-01-05T18:42:29.580Z,101440.63
2023-01-05T18:44:55.949Z,101434.69
2023-01-05T18:47:22.331Z,101436.41
2023-01-05T18:49:48.838Z,101438.06
2023-01-05T18:52:15.327Z,101438.94
2023-01-05T18:54:42.148Z,101433.41
2023-01-05T18:57:08.601Z,101440.44
2023-01-05T18:59:35.140Z,101438.50
2023-01-05T19:02:01.601Z,101440.22
2023-01-05T19:04:28.149Z,101441.91
2023-01-05T19:06:56.007Z,101436.41
2023-01-05T19:09:22.529Z,101429.16
2023-01-05T19:11:49.060Z,101439.34
2023-01-05T19:14:16.120Z,101437.69
2023-01-05T19:16:42.530Z,101437.03
2023-01-05T19:19:12.427Z,101432.53
2023-01-05T19:21:40.885Z,101430.88
2023-01-05T19:24:14.313Z,101422.16
2023-01-05T19:26:40.765Z,101419.84
2023-01-05T19:29:07.221Z,101421.75
2023-01-05T19:31:34.359Z,101424.50
2023-01-05T19:34:00.782Z,101423.84
2023-01-05T19:36:35.586Z,101421.75
2023-01-05T19:39:10.740Z,101420.88
2023-01-05T19:41:39.144Z,101414.72
2023-01-05T19:44:06.176Z,101414.72
2023-01-05T19:46:34.944Z,101407.50
2023-01-05T19:49:02.015Z,101406.66
2023-01-05T19:51:29.589Z,101406.84
2023-01-05T19:53:58.470Z,101404.09
2023-01-05T19:56:27.369Z,101405.38
2023-01-05T19:58:56.598Z,101401.97
2023-01-05T20:01:24.487Z,101401.13
2023-01-05T20:03:52.093Z,101401.97
2023-01-05T20:06:24.561Z,101401.97
2023-01-05T20:08:52.493Z,101406.66
2023-01-05T20:11:39.502Z,101393.06
2023-01-05T20:14:22.433Z,101401.97
2023-01-05T20:16:54.445Z,101391.16
2023-01-05T20:19:22.736Z,101393.06
2023-01-05T20:21:50.366Z,101394.31
2023-01-05T20:24:19.646Z,101391.78
2023-01-05T20:26:46.956Z,101394.53
2023-01-05T20:29:14.912Z,101405.78
2023-01-05T20:31:44.539Z,101399.41
2023-01-05T20:34:16.961Z,101407.91
2023-01-05T20:36:44.351Z,101406.19
2023-01-05T20:39:13.813Z,101400.66
2023-01-05T20:41:43.032Z,101402.81
2023-01-05T20:44:10.195Z,101405.56
2023-01-05T20:46:43.236Z,101404.91
2023-01-05T20:49:10.331Z,101401.09
2023-01-05T20:51:37.682Z,101405.56
2023-01-05T20:54:05.941Z,101408.09
2023-01-05T20:56:38.652Z,101402.38
2023-01-05T20:59:12.239Z,101400.25
2023-01-05T21:01:39.045Z,101408.53
2023-01-05T21:04:06.252Z,101401.97
2023-01-05T21:06:33.482Z,101407.47
2023-01-05T21:09:00.342Z,101403.84
2023-01-05T21:11:27.008Z,101404.91
2023-01-05T21:13:56.252Z,101410.00
2023-01-05T21:16:31.456Z,101405.34
2023-01-05T21:19:00.405Z,101403.63
2023-01-05T21:21:28.995Z,101400.03
2023-01-05T21:23:55.552Z,101397.28
2023-01-05T21:26:22.763Z,101391.78
2023-01-05T21:28:51.475Z,101399.63
2023-01-05T21:31:20.558Z,101392.38
2023-01-05T21:33:47.828Z,101382.81
2023-01-05T21:36:19.872Z,101385.78
2023-01-05T21:39:01.414Z,101391.31
2023-01-05T21:41:50.035Z,101377.09
2023-01-05T21:44:16.990Z,101371.78
2023-01-05T21:46:43.478Z,101380.69
2023-01-05T21:49:11.211Z,101375.84
2023-01-05T21:51:57.490Z,101375.19
2023-01-05T21:54:42.959Z,101368.81
2023-01-05T21:57:10.237Z,101365.19
2023-01-05T21:59:36.728Z,101373.47
2023-01-05T22:02:03.324Z,101364.13
2023-01-05T22:04:29.800Z,101373.47
2023-01-05T22:06:56.361Z,101370.72
2023-01-05T22:09:22.803Z,101377.31
2023-01-05T22:11:49.279Z,101367.53
2023-01-05T22:14:16.088Z,101359.47
2023-01-05T22:16:42.519Z,101361.16
2023-01-05T22:19:10.864Z,101350.13
2023-01-05T22:21:37.598Z,101348.22
2023-01-05T22:24:04.455Z,101343.53
2023-01-05T22:26:30.876Z,101348.22
2023-01-05T22:28:57.355Z,101347.16
2023-01-05T22:31:27.057Z,101353.53
2023-01-05T22:33:56.162Z,101352.69
2023-01-05T22:36:24.558Z,101349.91
2023-01-05T22:38:52.035Z,101353.53
2023-01-05T22:41:21.400Z,101356.28
2023-01-05T22:43:48.444Z,101366.66
2023-01-05T22:46:20.542Z,101363.09
2023-01-05T22:48:48.353Z,101359.47
2023-01-05T22:51:17.924Z,101366.03
2023-01-05T22:53:45.342Z,101366.22
2023-01-05T22:56:13.655Z,101364.13
2023-01-05T22:58:40.613Z,101353.09
2023-01-05T23:01:22.327Z,101353.53
2023-01-05T23:03:49.749Z,101356.72
2023-01-05T23:06:16.773Z,101348.00
2023-01-05T23:08:43.644Z,101353.75
2023-01-05T23:11:13.424Z,101355.25
2023-01-05T23:13:40.814Z,101347.59
2023-01-05T23:16:08.543Z,101360.75
2023-01-05T23:18:36.635Z,101361.63
2023-01-05T23:21:05.266Z,101351.44
2023-01-05T23:23:32.526Z,101352.72
2023-01-05T23:25:59.236Z,101356.09
2023-01-05T23:28:27.403Z,101342.53
2023-01-05T23:30:55.677Z,101342.53
2023-01-05T23:33:24.672Z,101339.34
2023-01-05T23:35:52.702Z,101335.53
2023-01-05T23:38:19.721Z,101339.56
2023-01-05T23:40:48.829Z,101330.41
2023-01-05T23:43:17.192Z,101329.56
2023-01-05T23:45:44.131Z,101315.34
2023-01-05T23:48:12.308Z,101323.19
2023-01-05T23:50:47.459Z,101321.50
2023-01-05T23:53:14.921Z,101322.53
2023-01-05T23:55:42.164Z,101302.59
2023-01-05T23:58:09.607Z,101300.03
